Time;durP1;ratioP1;P1;durP2;ratioP2;P2;SDS_P1;SDS_P2;PMS_P1;PMS_P2;Temp;Humidity;BMP_temperature;BMP_pressure;BME280_temperature;BME280_humidity;BME280_pressure;Samples;Min_cycle;Max_cycle;Signal;HPM_P1;HPM_P2
2021/06/15 00:00:43;;;;;;;4.47;4.07;;;21.30;60.90;;;;;;4961857;29;20209;-83
2021/06/15 00:03:09;;;;;;;4.60;4.13;;;21.30;61.80;;;;;;4960488;29;20237;-83
2021/06/15 00:05:35;;;;;;;4.85;4.35;;;21.30;60.90;;;;;;4960671;29;20174;-83
2021/06/15 00:08:01;;;;;;;4.40;4.00;;;21.30;61.00;;;;;;4960458;29;20549;-85
2021/06/15 00:10:28;;;;;;;4.40;4.00;;;21.30;60.90;;;;;;4959993;29;20166;-85
2021/06/15 00:12:58;;;;;;;4.20;3.80;;;21.30;60.90;;;;;;4976528;28;20165;-85
2021/06/15 00:15:24;;;;;;;4.63;4.18;;;21.30;60.90;;;;;;4959758;29;20161;-84
2021/06/15 00:17:50;;;;;;;4.30;3.90;;;21.30;61.00;;;;;;4977006;28;20245;-85
2021/06/15 00:20:19;;;;;;;4.30;3.90;;;21.20;61.00;;;;;;4960458;28;20643;-84
2021/06/15 00:22:45;;;;;;;4.18;3.78;;;21.30;60.90;;;;;;4960521;28;20628;-84
2021/06/15 00:25:12;;;;;;;4.50;4.10;;;21.30;60.90;;;;;;4975872;28;20253;-84
2021/06/15 00:27:40;;;;;;;4.43;4.03;;;21.20;60.90;;;;;;4959560;28;20174;-83
2021/06/15 00:30:06;;;;;;;4.35;3.95;;;21.20;60.90;;;;;;4943400;28;20196;-84
2021/06/15 00:32:32;;;;;;;4.80;4.30;;;21.20;60.90;;;;;;4976445;28;20158;-83
2021/06/15 00:35:00;;;;;;;4.40;4.00;;;21.20;61.00;;;;;;4959842;29;20172;-84
2021/06/15 00:37:28;;;;;;;4.20;3.80;;;21.20;61.00;;;;;;4959622;28;20739;-84
2021/06/15 00:39:54;;;;;;;4.18;3.75;;;21.20;61.10;;;;;;4942328;29;20706;-84
2021/06/15 00:42:23;;;;;;;4.18;3.78;;;21.20;61.00;;;;;;4959135;29;20165;-84
2021/06/15 00:44:49;;;;;;;4.38;3.97;;;21.20;61.00;;;;;;4942396;28;20181;-84
2021/06/15 00:47:19;;;;;;;4.70;4.20;;;21.20;61.10;;;;;;4975057;28;20161;-84
2021/06/15 00:49:46;;;;;;;4.40;4.00;;;21.20;61.10;;;;;;4942609;28;20189;-84
2021/06/15 00:52:14;;;;;;;4.50;4.10;;;21.20;61.10;;;;;;4958291;28;20195;-85
2021/06/15 00:54:42;;;;;;;4.53;3.88;;;21.20;61.00;;;;;;4942043;29;20199;-84
2021/06/15 00:57:15;;;;;;;4.32;3.92;;;21.20;60.90;;;;;;4958417;28;20280;-84
2021/06/15 00:59:46;;;;;;;4.32;3.92;;;21.20;60.90;;;;;;4958281;29;20197;-84
2021/06/15 01:02:16;;;;;;;4.85;4.35;;;21.20;60.80;;;;;;4942444;29;20182;-84
2021/06/15 01:04:42;;;;;;;4.25;3.85;;;21.20;60.90;;;;;;4957955;28;20190;-84
2021/06/15 01:07:19;;;;;;;4.18;3.63;;;21.20;60.90;;;;;;4958062;28;20279;-84
2021/06/15 01:09:52;;;;;;;4.35;3.95;;;21.20;61.00;;;;;;4958889;29;20185;-85
2021/06/15 01:12:49;;;;;;;4.18;3.78;;;21.20;61.00;;;;;;4958183;29;20154;-84
2021/06/15 01:15:18;;;;;;;4.32;3.90;;;21.20;61.00;;;;;;4958888;29;20216;-84
2021/06/15 01:17:54;;;;;;;5.18;4.30;;;21.20;61.00;;;;;;4975317;28;20171;-84
2021/06/15 01:20:33;;;;;;;4.15;3.75;;;21.20;61.00;;;;;;4975352;28;20188;-84
2021/06/15 01:23:39;;;;;;;4.20;3.80;;;21.20;61.00;;;;;;4958403;28;20192;-83
2021/06/15 01:26:40;;;;;;;4.60;4.10;;;21.20;61.10;;;;;;4961611;28;20231;-85
2021/06/15 01:29:14;;;;;;;5.18;4.20;;;21.10;61.00;;;;;;4958450;29;20245;-84
2021/06/15 01:31:46;;;;;;;4.38;3.97;;;21.10;61.00;;;;;;4926633;29;20192;-84
2021/06/15 01:34:19;;;;;;;4.38;3.97;;;21.10;61.10;;;;;;4942670;28;20189;-84
2021/06/15 01:36:56;;;;;;;4.28;3.88;;;21.20;61.10;;;;;;4941963;28;20196;-84
2021/06/15 01:39:27;;;;;;;4.55;4.15;;;21.20;61.10;;;;;;4926157;29;20181;-85
2021/06/15 01:42:23;;;;;;;4.32;3.92;;;21.20;61.10;;;;;;4941898;28;20235;-85
2021/06/15 01:44:57;;;;;;;4.53;4.07;;;21.20;61.10;;;;;;4930683;29;20186;-84
2021/06/15 01:47:25;;;;;;;4.63;4.20;;;21.20;61.10;;;;;;4957609;28;20217;-84
2021/06/15 01:49:59;;;;;;;4.55;4.15;;;21.10;61.00;;;;;;4957875;28;20186;-84
2021/06/15 01:52:32;;;;;;;4.38;3.97;;;21.10;61.00;;;;;;4972693;28;20556;-84
2021/06/15 01:55:05;;;;;;;4.82;4.10;;;21.10;61.10;;;;;;4957657;28;20280;-84
2021/06/15 01:57:35;;;;;;;4.40;4.00;;;21.20;61.00;;;;;;4941734;29;20247;-85
2021/06/15 02:00:10;;;;;;;5.05;4.47;;;21.20;61.00;;;;;;4941991;29;20217;-84
2021/06/15 02:02:41;;;;;;;4.38;3.97;;;21.20;61.10;;;;;;4974478;28;20145;-84
2021/06/15 02:05:12;;;;;;;4.68;4.18;;;21.10;61.00;;;;;;4973071;28;20177;-84
2021/06/15 02:07:43;;;;;;;4.47;4.07;;;21.10;61.00;;;;;;4957017;28;20261;-85
2021/06/15 02:10:15;;;;;;;4.47;4.07;;;21.10;61.10;;;;;;4959699;28;20748;-84
2021/06/15 02:12:46;;;;;;;4.43;4.03;;;21.10;61.00;;;;;;4976698;28;20195;-84
2021/06/15 02:15:17;;;;;;;4.50;4.10;;;21.10;61.10;;;;;;4961149;28;20185;-85
2021/06/15 02:17:49;;;;;;;4.82;4.30;;;21.10;61.90;;;;;;4945028;28;20609;-85
2021/06/15 02:20:18;;;;;;;4.78;3.90;;;21.20;61.10;;;;;;4960372;29;20268;-84
2021/06/15 02:22:47;;;;;;;4.25;3.85;;;21.10;61.20;;;;;;4944592;28;20265;-85
2021/06/15 02:25:17;;;;;;;4.50;4.10;;;21.10;61.20;;;;;;4976771;28;20323;-84
2021/06/15 02:27:45;;;;;;;4.57;4.18;;;21.10;61.20;;;;;;4962193;28;20180;-84
2021/06/15 02:30:15;;;;;;;4.18;3.78;;;21.20;61.20;;;;;;4928700;29;20280;-85
2021/06/15 02:32:44;;;;;;;4.53;4.13;;;21.10;61.20;;;;;;4960362;28;20209;-84
2021/06/15 02:35:14;;;;;;;4.35;3.95;;;21.10;61.20;;;;;;4976443;28;20196;-84
2021/06/15 02:37:48;;;;;;;4.57;4.18;;;21.10;61.20;;;;;;4959574;28;20320;-85
2021/06/15 02:40:18;;;;;;;4.45;4.05;;;21.00;61.00;;;;;;4959815;28;20308;-84
2021/06/15 02:42:46;;;;;;;4.22;3.83;;;21.20;61.20;;;;;;4959437;28;20193;-84
2021/06/15 02:45:15;;;;;;;4.63;4.15;;;21.10;61.10;;;;;;4943732;29;20588;-83
2021/06/15 02:47:44;;;;;;;4.68;4.20;;;21.10;61.10;;;;;;4966287;28;20185;-82
2021/06/15 02:50:16;;;;;;;4.85;4.30;;;21.10;61.10;;;;;;4965006;28;20181;-83
2021/06/15 02:52:51;;;;;;;4.70;4.20;;;21.10;61.10;;;;;;4949650;28;20189;-83
2021/06/15 02:55:23;;;;;;;4.18;3.78;;;21.10;61.10;;;;;;4980774;28;20706;-83
2021/06/15 02:57:49;;;;;;;4.50;4.10;;;21.10;61.00;;;;;;4982625;28;20227;-83
2021/06/15 03:00:15;;;;;;;4.43;4.03;;;21.10;61.10;;;;;;4963749;29;20268;-83
2021/06/15 03:02:44;;;;;;;4.30;3.90;;;21.10;61.10;;;;;;4980597;28;20154;-83
2021/06/15 03:05:16;;;;;;;4.53;4.13;;;21.10;61.10;;;;;;4946444;28;20189;-83
2021/06/15 03:07:45;;;;;;;4.55;4.10;;;21.10;61.00;;;;;;4958884;28;20633;-83
2021/06/15 03:10:16;;;;;;;4.38;3.97;;;21.10;61.00;;;;;;4958930;28;20196;-83
2021/06/15 03:12:48;;;;;;;4.80;4.22;;;21.20;61.10;;;;;;4958750;28;20185;-83
2021/06/15 03:15:20;;;;;;;4.90;4.32;;;21.20;61.00;;;;;;4927250;29;20279;-83
2021/06/15 03:17:54;;;;;;;4.50;4.10;;;21.20;60.90;;;;;;4959602;28;20173;-83
2021/06/15 03:20:23;;;;;;;4.35;3.95;;;21.20;60.70;;;;;;4957349;28;20224;-83
2021/06/15 03:22:57;;;;;;;4.30;3.90;;;21.30;60.70;;;;;;4958261;28;20169;-84
2021/06/15 03:25:29;;;;;;;4.28;3.88;;;21.30;60.60;;;;;;4974121;28;20220;-84
2021/06/15 03:28:17;;;;;;;4.47;4.00;;;21.30;60.50;;;;;;4958512;28;20204;-83
2021/06/15 03:30:45;;;;;;;4.78;4.18;;;21.30;60.50;;;;;;4944045;29;20193;-83
2021/06/15 03:33:16;;;;;;;5.10;4.60;;;21.30;60.40;;;;;;4957367;28;20276;-85
2021/06/15 03:35:52;;;;;;;4.88;4.47;;;21.30;60.40;;;;;;4941173;29;20181;-83
2021/06/15 03:38:19;;;;;;;5.07;4.60;;;21.30;60.10;;;;;;4974246;28;20212;-84
2021/06/15 03:40:49;;;;;;;4.13;3.72;;;21.40;60.20;;;;;;4940657;29;20216;-84
2021/06/15 03:43:16;;;;;;;4.43;4.03;;;21.30;60.00;;;;;;4972966;28;20185;-83
2021/06/15 03:45:47;;;;;;;4.25;3.85;;;21.40;60.00;;;;;;4956930;29;20675;-83
2021/06/15 03:48:14;;;;;;;4.60;3.88;;;21.40;59.90;;;;;;4973380;28;20248;-83
2021/06/15 03:50:44;;;;;;;4.50;4.10;;;21.40;59.90;;;;;;4941191;28;20611;-83
2021/06/15 03:53:10;;;;;;;4.50;4.10;;;21.40;59.80;;;;;;4972454;28;20189;-83
2021/06/15 03:55:39;;;;;;;4.45;4.05;;;21.40;59.80;;;;;;4940854;29;20521;-83
2021/06/15 03:58:08;;;;;;;4.28;3.88;;;21.50;59.70;;;;;;4957550;29;20189;-83
2021/06/15 04:00:38;;;;;;;4.00;3.60;;;21.50;59.50;;;;;;4956380;29;20193;-84
2021/06/15 04:03:07;;;;;;;4.45;4.05;;;21.60;59.60;;;;;;4956227;28;20193;-83
2021/06/15 04:05:37;;;;;;;4.10;3.70;;;21.60;59.60;;;;;;4972414;28;20613;-84
2021/06/15 04:08:11;;;;;;;4.50;4.10;;;21.50;59.40;;;;;;4939840;28;20244;-83
2021/06/15 04:10:42;;;;;;;4.68;4.18;;;21.50;59.40;;;;;;4971680;28;20200;-84
2021/06/15 04:13:12;;;;;;;4.25;3.85;;;21.50;59.40;;;;;;4924406;29;20237;-83
2021/06/15 04:15:42;;;;;;;3.92;3.53;;;21.40;59.40;;;;;;4955434;28;20671;-83
2021/06/15 04:18:12;;;;;;;4.53;3.75;;;21.50;59.50;;;;;;4955455;28;20193;-83
2021/06/15 04:20:42;;;;;;;4.07;3.67;;;21.50;59.30;;;;;;4955189;28;20236;-83
2021/06/15 04:23:12;;;;;;;4.30;3.65;;;21.50;59.40;;;;;;4971346;28;20185;-83
2021/06/15 04:25:41;;;;;;;4.72;3.72;;;21.50;59.20;;;;;;4971104;28;20311;-83
2021/06/15 04:28:10;;;;;;;3.75;3.45;;;21.50;59.20;;;;;;4956397;28;20169;-84
2021/06/15 04:30:40;;;;;;;3.80;3.40;;;21.50;59.10;;;;;;4971008;28;20216;-83
2021/06/15 04:33:11;;;;;;;3.70;3.40;;;21.50;59.00;;;;;;4938002;29;20192;-83
2021/06/15 04:35:44;;;;;;;4.15;3.75;;;21.60;58.80;;;;;;4955148;28;20189;-83
2021/06/15 04:38:15;;;;;;;4.45;3.72;;;21.60;58.80;;;;;;4970971;28;20662;-83
2021/06/15 04:40:47;;;;;;;4.32;3.92;;;21.60;58.90;;;;;;4954322;28;20624;-84
2021/06/15 04:43:26;;;;;;;4.30;3.58;;;21.50;59.10;;;;;;4954896;28;20189;-84
2021/06/15 04:45:56;;;;;;;4.00;3.60;;;21.50;58.70;;;;;;4971553;28;20276;-83
2021/06/15 04:48:29;;;;;;;3.78;3.47;;;21.60;58.70;;;;;;4955229;28;20193;-83
2021/06/15 04:51:00;;;;;;;4.10;3.70;;;21.60;58.80;;;;;;4954853;28;20177;-83
2021/06/15 04:53:30;;;;;;;3.40;3.10;;;21.60;58.70;;;;;;4970786;28;20208;-83
2021/06/15 04:56:00;;;;;;;4.00;3.60;;;21.60;58.60;;;;;;4970486;28;20213;-84
2021/06/15 04:58:30;;;;;;;4.20;3.42;;;21.70;58.50;;;;;;4954622;28;20520;-83
2021/06/15 05:01:00;;;;;;;3.60;3.30;;;21.60;58.60;;;;;;4954391;28;20212;-83
2021/06/15 05:03:28;;;;;;;3.90;3.47;;;21.70;58.50;;;;;;4954588;28;20181;-83
2021/06/15 05:05:54;;;;;;;3.97;3.58;;;21.70;58.50;;;;;;4954315;28;20181;-84
2021/06/15 05:08:27;;;;;;;3.33;3.03;;;21.60;58.60;;;;;;4954739;29;20162;-84
2021/06/15 05:10:56;;;;;;;3.58;3.28;;;21.60;58.30;;;;;;4938056;29;20212;-84
2021/06/15 05:13:25;;;;;;;4.10;3.70;;;21.60;58.40;;;;;;4938142;29;20219;-85
2021/06/15 05:15:53;;;;;;;3.75;3.10;;;21.60;58.40;;;;;;4953893;29;20272;-83
2021/06/15 05:18:24;;;;;;;3.80;3.40;;;21.70;58.40;;;;;;4953894;29;20657;-83
2021/06/15 05:20:53;;;;;;;3.92;3.50;;;21.70;58.40;;;;;;4938045;28;20562;-84
2021/06/15 05:23:33;;;;;;;3.55;3.05;;;21.60;58.30;;;;;;4970415;28;20181;-84
2021/06/15 05:26:01;;;;;;;3.47;3.17;;;21.60;58.00;;;;;;4939003;28;20320;-84
2021/06/15 05:28:30;;;;;;;3.38;3.08;;;21.60;58.30;;;;;;4954379;28;20185;-84
2021/06/15 05:30:58;;;;;;;3.90;3.42;;;21.70;58.40;;;;;;4938279;29;20272;-84
2021/06/15 05:33:28;;;;;;;3.88;3.35;;;21.70;58.30;;;;;;4938463;29;20224;-84
2021/06/15 05:35:56;;;;;;;3.60;3.30;;;21.70;58.30;;;;;;4970377;28;20672;-84
2021/06/15 05:38:24;;;;;;;3.17;2.88;;;21.70;58.30;;;;;;4970530;28;20197;-84
2021/06/15 05:40:51;;;;;;;3.53;3.22;;;21.70;57.90;;;;;;4970438;28;20209;-84
2021/06/15 05:43:19;;;;;;;4.82;3.70;;;21.80;58.00;;;;;;4970204;28;20185;-84
2021/06/15 05:45:45;;;;;;;3.42;3.13;;;21.80;58.00;;;;;;4921827;29;20696;-84
2021/06/15 05:48:11;;;;;;;3.53;3.22;;;21.80;57.80;;;;;;4954668;29;20245;-84
2021/06/15 05:50:38;;;;;;;4.00;3.60;;;21.80;57.80;;;;;;4975713;28;20165;-84
2021/06/15 05:53:06;;;;;;;3.33;3.03;;;21.80;57.60;;;;;;4958767;29;20313;-84
2021/06/15 05:55:39;;;;;;;3.47;3.17;;;21.70;57.30;;;;;;4959048;28;20185;-85
2021/06/15 05:58:09;;;;;;;3.17;2.88;;;21.80;57.80;;;;;;4959009;29;20660;-84
2021/06/15 06:00:42;;;;;;;4.15;2.90;;;21.80;57.40;;;;;;4896312;29;20221;-84
2021/06/15 06:03:19;;;;;;;3.30;3.00;;;21.80;57.10;;;;;;4911358;29;20188;-84
2021/06/15 06:08:32;;;;;;;4.05;3.17;;;21.90;57.10;;;;;;4959483;29;20157;-83
2021/06/15 06:11:10;;;;;;;3.20;2.90;;;21.90;57.10;;;;;;4911081;29;20623;-85
2021/06/15 06:13:40;;;;;;;3.20;2.78;;;21.90;56.80;;;;;;4911139;29;20185;-84
2021/06/15 06:16:10;;;;;;;5.00;3.10;;;21.90;57.00;;;;;;4912429;29;20197;-84
2021/06/15 06:18:41;;;;;;;3.58;2.90;;;21.90;56.60;;;;;;4928727;29;20276;-85
2021/06/15 06:21:09;;;;;;;3.15;2.85;;;21.90;56.90;;;;;;4946385;29;20213;-85
2021/06/15 06:23:37;;;;;;;3.20;2.90;;;21.90;57.20;;;;;;4958864;29;20241;-85
2021/06/15 06:26:05;;;;;;;3.42;2.72;;;22.00;56.40;;;;;;4909684;29;20249;-85
2021/06/15 06:28:33;;;;;;;3.22;2.92;;;22.00;56.80;;;;;;4942228;29;20186;-85
2021/06/15 06:31:00;;;;;;;3.13;2.80;;;22.00;56.60;;;;;;4910111;29;20182;-85
2021/06/15 06:33:28;;;;;;;2.90;2.50;;;22.00;56.40;;;;;;4925499;29;20185;-85
2021/06/15 06:35:55;;;;;;;3.05;2.75;;;21.90;56.30;;;;;;4941258;29;20616;-85
2021/06/15 06:38:21;;;;;;;3.05;2.72;;;22.00;56.60;;;;;;4894151;29;20181;-84
2021/06/15 06:40:49;;;;;;;3.92;2.75;;;21.90;55.70;;;;;;4956135;29;20196;-83
2021/06/15 06:43:14;;;;;;;3.17;2.72;;;21.90;56.20;;;;;;4956953;29;20150;-84
2021/06/15 06:45:44;;;;;;;3.60;2.75;;;21.90;55.70;;;;;;4958799;29;20173;-84
2021/06/15 06:48:14;;;;;;;3.08;2.78;;;21.90;56.30;;;;;;4940278;29;20522;-83
2021/06/15 06:50:43;;;;;;;3.20;2.78;;;22.00;55.60;;;;;;4956120;29;20165;-83
2021/06/15 06:53:13;;;;;;;5.03;2.80;;;21.90;55.40;;;;;;4921961;28;20279;-83
2021/06/15 06:55:39;;;;;;;5.50;2.30;;;21.90;55.60;;;;;;4938483;29;20196;-82
2021/06/15 06:58:05;;;;;;;3.80;2.50;;;21.90;54.80;;;;;;4963068;29;20169;-82
2021/06/15 07:00:34;;;;;;;3.10;2.80;;;21.90;56.60;;;;;;4963472;29;20185;-80
2021/06/15 07:03:00;;;;;;;4.20;2.80;;;22.00;55.90;;;;;;4910215;29;20649;-82
2021/06/15 07:05:28;;;;;;;2.50;2.30;;;22.00;55.80;;;;;;4957914;29;20176;-81
2021/06/15 07:07:56;;;;;;;2.65;2.38;;;22.00;54.90;;;;;;4941116;29;20244;-81
2021/06/15 07:10:23;;;;;;;2.70;2.50;;;21.90;55.20;;;;;;4941201;29;20248;-81
2021/06/15 07:12:51;;;;;;;3.20;2.90;;;22.00;55.00;;;;;;4941367;29;20189;-80
2021/06/15 07:15:19;;;;;;;2.90;2.60;;;22.00;55.30;;;;;;4910704;29;20195;-80
2021/06/15 07:17:46;;;;;;;2.67;2.47;;;22.00;55.50;;;;;;4927903;29;20644;-81
2021/06/15 07:20:13;;;;;;;3.53;3.17;;;22.00;55.20;;;;;;4913728;29;20205;-79
2021/06/15 07:22:40;;;;;;;2.88;2.50;;;21.90;56.30;;;;;;4914260;29;20182;-80
2021/06/15 07:25:07;;;;;;;3.08;2.78;;;21.90;55.90;;;;;;4929996;29;20346;-81
2021/06/15 07:27:32;;;;;;;5.20;2.90;;;22.00;55.90;;;;;;4946496;29;20185;-80
2021/06/15 07:29:58;;;;;;;2.65;2.22;;;22.00;55.70;;;;;;4962195;29;20176;-81
2021/06/15 07:32:24;;;;;;;3.10;2.80;;;21.90;55.00;;;;;;4961481;29;20205;-80
2021/06/15 07:34:50;;;;;;;2.63;2.35;;;22.00;56.20;;;;;;4962963;29;20208;-81
2021/06/15 07:37:20;;;;;;;2.78;2.58;;;22.00;55.10;;;;;;4963622;28;20174;-80
2021/06/15 07:39:45;;;;;;;3.13;2.75;;;22.20;55.10;;;;;;4960404;29;20731;-80
2021/06/15 07:42:13;;;;;;;2.45;2.22;;;22.10;55.00;;;;;;4962521;29;20237;-79
2021/06/15 07:44:40;;;;;;;2.80;2.60;;;22.10;54.70;;;;;;4943779;29;20608;-80
2021/06/15 07:47:09;;;;;;;2.67;2.47;;;22.10;55.50;;;;;;4946612;29;20648;-82
2021/06/15 07:49:35;;;;;;;5.63;2.50;;;22.10;55.00;;;;;;4931778;29;20664;-80
2021/06/15 07:52:01;;;;;;;2.80;2.45;;;22.10;54.40;;;;;;4963780;29;20165;-80
2021/06/15 07:54:26;;;;;;;3.00;2.70;;;22.10;54.70;;;;;;4964097;29;20185;-80
2021/06/15 07:56:53;;;;;;;2.90;2.60;;;22.10;55.40;;;;;;4962730;29;20217;-81
2021/06/15 07:59:19;;;;;;;2.80;2.60;;;22.10;55.30;;;;;;4964348;29;20192;-80
2021/06/15 08:01:45;;;;;;;2.72;2.53;;;22.10;55.00;;;;;;4960593;29;20233;-81
2021/06/15 08:04:15;;;;;;;3.05;2.50;;;22.10;54.70;;;;;;4963691;29;20154;-81
2021/06/15 08:06:45;;;;;;;2.80;2.50;;;22.10;54.80;;;;;;4961465;28;20146;-82
2021/06/15 08:09:11;;;;;;;2.92;2.35;;;22.20;54.50;;;;;;4929583;29;20185;-82
2021/06/15 08:11:40;;;;;;;2.72;2.42;;;22.10;54.60;;;;;;4967593;29;20162;-81
2021/06/15 08:14:05;;;;;;;2.80;2.50;;;22.10;54.60;;;;;;4968843;29;20164;-82
2021/06/15 08:16:32;;;;;;;2.50;2.30;;;22.10;54.60;;;;;;4966963;29;20173;-82
2021/06/15 08:19:02;;;;;;;3.80;2.10;;;22.00;54.80;;;;;;4968089;29;20185;-82
2021/06/15 08:21:28;;;;;;;2.70;2.50;;;22.10;53.90;;;;;;4901342;29;20217;-81
2021/06/15 08:23:54;;;;;;;2.90;2.60;;;22.10;54.10;;;;;;4965440;29;20173;-81
2021/06/15 08:26:19;;;;;;;2.85;2.30;;;22.10;54.40;;;;;;4930958;29;20586;-82
2021/06/15 08:28:45;;;;;;;2.92;2.10;;;22.20;54.40;;;;;;4957481;29;20170;-82
2021/06/15 08:31:17;;;;;;;2.70;2.13;;;22.20;53.80;;;;;;4957691;28;20161;-82
2021/06/15 08:33:43;;;;;;;3.25;2.45;;;22.30;53.10;;;;;;4924321;29;20193;-82
2021/06/15 08:36:09;;;;;;;2.55;2.35;;;22.30;54.00;;;;;;4955871;29;20157;-81
2021/06/15 08:38:35;;;;;;;2.58;2.38;;;22.20;53.90;;;;;;4957178;29;20169;-81
2021/06/15 08:41:01;;;;;;;2.47;2.28;;;22.20;54.60;;;;;;4955666;29;20195;-82
2021/06/15 08:43:27;;;;;;;2.60;2.40;;;22.20;54.20;;;;;;4958269;28;20172;-82
2021/06/15 08:45:53;;;;;;;2.60;2.40;;;22.20;53.80;;;;;;4955644;29;20233;-81
2021/06/15 08:48:21;;;;;;;2.47;2.28;;;22.40;53.90;;;;;;4957478;29;20225;-82
2021/06/15 08:50:50;;;;;;;2.60;2.40;;;22.30;53.80;;;;;;4958395;28;20221;-82
2021/06/15 08:53:17;;;;;;;3.38;2.22;;;22.30;54.10;;;;;;4922855;29;20193;-81
2021/06/15 08:55:48;;;;;;;2.75;2.22;;;22.30;53.30;;;;;;4956221;29;20172;-83
2021/06/15 08:58:47;;;;;;;2.95;2.45;;;22.20;54.80;;;;;;4955319;29;20197;-81
2021/06/15 09:01:13;;;;;;;2.60;2.40;;;22.20;54.20;;;;;;4956177;28;20736;-81
2021/06/15 09:03:40;;;;;;;2.60;2.40;;;22.20;54.70;;;;;;4954772;29;20173;-81
2021/06/15 09:06:06;;;;;;;3.42;2.55;;;22.10;54.60;;;;;;4955187;29;20158;-81
2021/06/15 09:08:32;;;;;;;2.33;2.03;;;22.20;54.70;;;;;;4955174;29;20526;-81
2021/06/15 09:10:59;;;;;;;4.65;2.35;;;22.20;54.10;;;;;;4954969;29;20260;-81
2021/06/15 09:13:41;;;;;;;8.18;3.33;;;22.20;54.40;;;;;;4955081;29;20589;-82
2021/06/15 09:16:27;;;;;;;4.65;2.63;;;22.10;54.50;;;;;;4954582;29;20249;-81
2021/06/15 09:18:56;;;;;;;3.20;2.90;;;22.20;54.80;;;;;;4955510;28;20168;-81
2021/06/15 09:21:38;;;;;;;3.95;2.80;;;22.10;55.00;;;;;;4955898;28;20214;-81
2021/06/15 09:24:10;;;;;;;3.83;2.65;;;22.10;54.40;;;;;;4954877;29;20522;-81
2021/06/15 09:27:08;;;;;;;5.05;2.67;;;22.10;55.10;;;;;;4938331;29;20228;-81
2021/06/15 09:29:37;;;;;;;5.70;2.35;;;22.10;54.50;;;;;;4956260;28;20177;-81
2021/06/15 09:32:04;;;;;;;2.63;2.30;;;22.10;54.60;;;;;;4956143;28;20534;-81
2021/06/15 09:34:30;;;;;;;2.38;2.17;;;22.10;53.90;;;;;;4954706;29;20166;-81
2021/06/15 09:36:56;;;;;;;3.25;2.30;;;22.10;54.90;;;;;;4955403;29;20244;-80
2021/06/15 09:39:23;;;;;;;2.50;2.15;;;22.10;53.80;;;;;;4955752;29;20617;-80
2021/06/15 09:41:49;;;;;;;3.65;2.50;;;22.10;54.20;;;;;;4954355;29;20192;-80
2021/06/15 09:44:25;;;;;;;3.35;2.20;;;22.10;54.20;;;;;;4955547;29;20173;-80
2021/06/15 09:46:53;;;;;;;3.13;2.40;;;22.10;53.70;;;;;;4954399;29;20240;-81
2021/06/15 09:49:37;;;;;;;2.70;2.20;;;22.10;54.20;;;;;;4954094;29;20196;-80
2021/06/15 09:52:33;;;;;;;2.85;2.47;;;22.10;54.40;;;;;;4954285;29;20158;-80
2021/06/15 09:55:02;;;;;;;3.15;2.75;;;22.10;54.20;;;;;;4954072;29;20153;-80
2021/06/15 09:57:33;;;;;;;2.47;2.15;;;22.10;54.50;;;;;;4954028;29;20158;-80
2021/06/15 10:00:15;;;;;;;3.15;2.20;;;22.10;54.50;;;;;;4891359;29;20217;-81
2021/06/15 10:02:45;;;;;;;2.53;2.20;;;22.10;54.60;;;;;;4924712;29;20564;-81
2021/06/15 10:05:22;;;;;;;2.92;2.35;;;22.10;54.20;;;;;;4955057;28;20154;-81
2021/06/15 10:07:50;;;;;;;2.55;2.35;;;22.10;54.90;;;;;;4906047;29;20275;-81
2021/06/15 10:10:17;;;;;;;2.53;2.22;;;22.10;55.00;;;;;;4905915;29;20197;-81
2021/06/15 10:12:42;;;;;;;5.03;2.42;;;22.10;54.70;;;;;;4955212;28;20165;-81
2021/06/15 10:15:09;;;;;;;3.72;2.40;;;22.10;54.80;;;;;;4955280;29;20603;-81
2021/06/15 10:17:35;;;;;;;2.78;2.30;;;22.10;54.60;;;;;;4955108;28;20252;-81
2021/06/15 10:20:01;;;;;;;3.38;2.33;;;22.10;55.00;;;;;;4953322;29;20536;-81
2021/06/15 10:22:27;;;;;;;2.95;2.10;;;22.10;54.40;;;;;;4953552;29;20170;-81
2021/06/15 10:24:53;;;;;;;2.63;2.20;;;22.10;54.30;;;;;;4954585;29;20205;-81
2021/06/15 10:27:19;;;;;;;2.95;2.50;;;22.10;54.80;;;;;;4955194;29;20165;-81
2021/06/15 10:29:51;;;;;;;2.40;2.17;;;22.10;54.80;;;;;;4921467;28;20190;-81
2021/06/15 10:32:20;;;;;;;3.33;2.50;;;22.20;54.80;;;;;;4909496;29;20560;-81
2021/06/15 10:34:54;;;;;;;4.47;2.47;;;22.20;54.70;;;;;;4924856;29;20177;-81
2021/06/15 10:37:40;;;;;;;4.15;2.88;;;22.20;54.60;;;;;;4958509;28;20610;-81
2021/06/15 10:40:31;;;;;;;3.42;2.35;;;22.10;55.10;;;;;;4989341;28;20206;-81
2021/06/15 10:43:12;;;;;;;4.38;2.63;;;22.20;54.40;;;;;;4957627;29;20236;-82
2021/06/15 10:45:38;;;;;;;4.03;2.78;;;22.20;55.60;;;;;;4957331;29;20153;-81
2021/06/15 10:48:25;;;;;;;2.85;2.53;;;22.10;54.50;;;;;;4957255;29;20154;-82
2021/06/15 10:50:52;;;;;;;4.47;2.30;;;22.10;54.70;;;;;;4957620;29;20161;-81
2021/06/15 10:53:19;;;;;;;4.78;2.70;;;22.20;55.10;;;;;;4957159;29;20161;-82
2021/06/15 10:56:00;;;;;;;5.95;2.28;;;22.20;55.10;;;;;;4956852;29;20660;-82
2021/06/15 10:58:57;;;;;;;4.50;2.50;;;22.20;55.40;;;;;;4957077;29;20170;-82
2021/06/15 11:01:24;;;;;;;7.07;2.65;;;22.20;55.20;;;;;;4958149;28;20245;-82
2021/06/15 11:04:10;;;;;;;4.45;2.33;;;22.20;54.80;;;;;;4956962;29;20158;-81
2021/06/15 11:06:38;;;;;;;7.15;2.67;;;22.10;55.40;;;;;;4941253;29;20630;-81
2021/06/15 11:09:23;;;;;;;4.72;2.53;;;22.00;55.90;;;;;;4972894;28;20165;-82
2021/06/15 11:12:11;;;;;;;4.90;2.20;;;22.00;55.30;;;;;;4973054;28;20202;-81
2021/06/15 11:14:37;;;;;;;6.50;2.10;;;22.00;53.70;;;;;;4937715;29;20258;-81
2021/06/15 11:17:05;;;;;;;8.10;2.20;;;22.00;53.30;;;;;;4953393;29;20182;-82
2021/06/15 11:19:37;;;;;;;7.00;2.28;;;22.00;52.10;;;;;;4937515;29;20173;-82
2021/06/15 11:22:11;;;;;;;5.78;2.05;;;22.10;52.50;;;;;;4937399;29;20514;-82
2021/06/15 11:24:48;;;;;;;10.60;2.22;;;22.20;52.50;;;;;;4955414;29;20691;-82
2021/06/15 11:27:19;;;;;;;5.60;2.10;;;22.20;51.60;;;;;;4988466;28;20161;-83
2021/06/15 11:29:46;;;;;;;10.30;2.40;;;22.10;52.00;;;;;;4988344;28;20166;-81
2021/06/15 11:32:21;;;;;;;9.00;2.20;;;22.10;52.70;;;;;;4988705;28;20266;-81
2021/06/15 11:35:14;;;;;;;5.03;1.77;;;22.10;51.50;;;;;;4989284;28;20586;-83
2021/06/15 11:37:45;;;;;;;5.00;2.30;;;22.00;51.40;;;;;;4968774;28;20192;-83
2021/06/15 11:40:35;;;;;;;5.88;2.08;;;22.00;51.90;;;;;;4991633;28;20193;-82
2021/06/15 11:43:18;;;;;;;2.92;1.73;;;22.00;51.90;;;;;;4983945;28;20170;-83
2021/06/15 11:45:45;;;;;;;7.38;2.38;;;22.00;51.30;;;;;;4984379;28;20166;-83
2021/06/15 11:48:16;;;;;;;3.15;2.10;;;22.00;50.80;;;;;;4963203;28;20154;-83
2021/06/15 11:50:48;;;;;;;8.13;2.40;;;22.00;51.40;;;;;;4961347;29;20161;-82
2021/06/15 11:53:16;;;;;;;4.97;1.95;;;22.00;51.00;;;;;;4911753;29;20185;-83
2021/06/15 11:56:00;;;;;;;10.40;1.98;;;22.00;51.20;;;;;;4944693;29;20170;-82
2021/06/15 11:58:32;;;;;;;2.90;1.80;;;22.00;51.20;;;;;;4948054;29;20232;-82
2021/06/15 12:01:04;;;;;;;5.82;2.08;;;21.90;51.00;;;;;;4927866;29;20213;-81
2021/06/15 12:03:40;;;;;;;4.60;2.20;;;22.00;50.80;;;;;;4924933;29;20316;-82
2021/06/15 12:06:11;;;;;;;6.50;2.08;;;22.00;50.70;;;;;;4924148;29;20640;-81
2021/06/15 12:08:42;;;;;;;6.38;2.15;;;21.90;50.60;;;;;;4908600;29;20188;-81
2021/06/15 12:11:14;;;;;;;4.57;1.80;;;21.90;50.90;;;;;;4924054;29;20222;-81
2021/06/15 12:13:43;;;;;;;9.68;1.98;;;21.90;50.80;;;;;;4924495;28;20637;-81
2021/06/15 12:16:15;;;;;;;6.88;2.00;;;22.00;51.10;;;;;;4923835;29;20192;-81
2021/06/15 12:18:51;;;;;;;8.85;2.00;;;22.00;51.00;;;;;;4908655;29;20186;-81
2021/06/15 12:21:22;;;;;;;6.38;2.33;;;21.90;51.00;;;;;;4940274;29;20197;-81
2021/06/15 12:23:52;;;;;;;6.70;1.83;;;21.90;51.40;;;;;;4924126;29;20184;-81
2021/06/15 12:26:25;;;;;;;6.53;2.30;;;21.90;50.80;;;;;;4892298;29;20225;-81
2021/06/15 12:28:55;;;;;;;6.72;2.08;;;21.90;50.60;;;;;;4924900;29;20187;-82
2021/06/15 12:31:24;;;;;;;6.40;2.33;;;21.90;50.70;;;;;;4930324;28;20197;-81
2021/06/15 12:33:53;;;;;;;4.38;2.10;;;22.00;50.50;;;;;;4934050;29;20264;-81
2021/06/15 12:36:23;;;;;;;9.52;2.10;;;22.00;50.20;;;;;;4902335;29;20265;-81
2021/06/15 12:38:50;;;;;;;5.22;2.10;;;22.00;50.70;;;;;;4935890;29;20186;-81
2021/06/15 12:41:22;;;;;;;8.15;2.30;;;22.00;50.80;;;;;;4935288;29;20217;-81
2021/06/15 12:43:51;;;;;;;5.25;1.63;;;21.90;50.80;;;;;;4904571;29;20209;-81
2021/06/15 12:46:28;;;;;;;8.00;2.00;;;21.80;50.50;;;;;;4904038;29;20233;-81
2021/06/15 12:49:05;;;;;;;6.95;2.17;;;21.90;50.20;;;;;;4936124;29;20178;-81
2021/06/15 12:51:33;;;;;;;4.95;1.67;;;22.00;50.30;;;;;;4938121;29;20189;-81
2021/06/15 12:54:14;;;;;;;8.93;2.10;;;22.00;49.70;;;;;;4920706;29;20198;-81
2021/06/15 12:56:51;;;;;;;5.00;1.85;;;22.00;50.20;;;;;;4923706;29;20208;-81
2021/06/15 12:59:19;;;;;;;7.38;2.00;;;22.00;50.00;;;;;;4938106;29;20240;-81
2021/06/15 13:01:44;;;;;;;5.03;1.75;;;22.00;50.30;;;;;;4920072;29;20288;-81
2021/06/15 13:04:21;;;;;;;4.35;1.77;;;21.90;49.90;;;;;;4954093;29;20170;-82
2021/06/15 13:06:50;;;;;;;6.13;1.80;;;21.90;50.10;;;;;;4936889;29;20186;-82